Nearby METAR Reports

This page may be slow to load as it queries the National Weather Service for data.

KBIS - Bismarck, North Dakota, USA
Distance from station: S 10mi, 15km
Updated: Fri, 30-Jul-2021 9:52pm CDT
Smoke, Overcast
Smoke, Overcast
 Wind from SW
Wind: SW 7 mph , 11 km/h
Temperature: 79°F , 26°C
Dew Point: 63°F , 17°C
Humidity: 58%
Barometer: 30.08 inHg , 1018.6 hPa
Summary: Smoke
Clouds: Overcast
Visibility: 5 miles , 8 km
Cloud details: Overcast 4600 ft
2021/07/31 02:52 KBIS 310252Z 22006KT 5SM FU OVC046 26/17 A3008 RMK AO2 SLP176 T02610167 53003
KDIK - Dickinson, North Dakota, USA
Distance from station: W 95mi, 154km
Updated: Fri, 30-Jul-2021 9:56pm CDT
Haze, Clear
Haze, Clear
 Wind from S
Wind: S 3 mph , 6 km/h
Temperature: 72°F , 22°C
Dew Point: 57°F , 14°C
Humidity: 61%
Barometer: 30.12 inHg , 1020 hPa
Summary: Haze
Clouds: Clear
Visibility: 5 miles , 8 km
2021/07/31 02:56 KDIK 310256Z AUTO 19003KT 5SM HZ CLR 22/14 A3012 RMK AO2 SLP184 T02220139 53007
 
KXWA - Williston, North Dakota, USA
Distance from station: NNW 2mi, 2km
Updated: Fri, 30-Jul-2021 9:51pm CDT
Clear
Clear
 Wind from N
Wind: N 9 mph , 15 km/h
Temperature: 77°F , 25°C
Dew Point: 46°F , 8°C
Humidity: 34%
Barometer: 30.16 inHg , 1021.3 hPa
Clouds: Clear
Visibility: 10 miles , 16 km
2021/07/31 02:51 KXWA 310251Z AUTO 36008KT 10SM CLR 25/08 A3016 RMK AO2 SLP208 T02500078 53015
KFAR - Fargo, North Dakota, USA
Distance from station: NNW 4mi, 7km
Updated: Fri, 30-Jul-2021 9:53pm CDT
Haze, Smoke, Overcast
Haze, Smoke, Overcast
 Wind from SSW
Wind: SSW 13 mph , 20 km/h
Temperature: 73°F , 23°C
Dew Point: 61°F , 16°C
Humidity: 65%
Barometer: 30.03 inHg , 1016.9 hPa
Summary: Haze, Smoke
Clouds: Overcast
Visibility: 3 miles , 5 km
Cloud details: Overcast 3700 ft
2021/07/31 02:53 KFAR 310253Z 21011KT 3SM HZ FU OVC037 23/16 A3003 RMK AO2 SLP167 T02280156 55003
 
KGFK - Grand Forks, North Dakota, USA
Distance from station: NNW 76mi, 123km
Updated: Fri, 30-Jul-2021 9:53pm CDT
Smoke, Haze, Overcast
Smoke, Haze, Overcast
 Wind from SSW
Wind: SSW 7 mph , 11 km/h
Temperature: 70°F , 21°C
Dew Point: 57°F , 14°C
Humidity: 64%
Barometer: 29.97 inHg , 1014.9 hPa
Summary: Smoke, Haze
Clouds: Overcast
Visibility: 1 mile , 2 km
Cloud details: Overcast 2500 ft
2021/07/31 02:53 KGFK 310253Z 21006KT 1SM R35L/P6000FT FU HZ OVC025 21/14 A2997 RMK AO2 SFC VIS 2 SLP147 FU OVC026 T02110139 55003
KMOT - Minot, North Dakota, USA
Distance from station: E 109mi, 175km
Updated: Fri, 30-Jul-2021 9:54pm CDT
Smoke, Clear
Smoke, Clear
 Wind from NNW
Wind: NNW 6 mph , 9 km/h
Temperature: 73°F , 23°C
Dew Point: 54°F , 12°C
Humidity: 50%
Barometer: 30.07 inHg , 1018.3 hPa
Summary: Smoke
Clouds: Clear
Visibility: 10 miles , 16 km
2021/07/31 02:54 KMOT 310254Z 33005KT 10SM FU CLR 23/12 A3007 RMK AO2 SLP176 T02280117 53012